Farmersville's Hourly Summary for Friday, July 6, 2018
Hour Temp
(f)
RH
(%)
Solar Rad.
(MJ/m2)
Rainfall
(in)
Wind
(mph)
7/6/2018 12:00 AM 80 71 0 0 0.15
7/6/2018 1:00 AM 79 75 0 0 0.16
7/6/2018 2:00 AM 78 77 0 0 0.09
7/6/2018 3:00 AM 76 83 0 0 0
7/6/2018 4:00 AM 75 84 0 0 0
7/6/2018 5:00 AM 75 92 0 0 0
7/6/2018 6:00 AM 74 99 0 0 0
7/6/2018 7:00 AM 74 99 0.04 0 0
7/6/2018 8:00 AM 77 84 0.47 0 0.02
7/6/2018 9:00 AM 84 66 1.08 0 0.07
7/6/2018 10:00 AM 88 56 1.64 0 0.86
7/6/2018 11:00 AM 91 51 1.89 0 1.81
7/6/2018 12:00 PM 93 42 2.46 0 2.48
7/6/2018 1:00 PM 94 42 2.16 0 1.88
7/6/2018 2:00 PM 98 36 2.73 0 1.89
7/6/2018 3:00 PM 90 37 1.34 0.02 4.36
7/6/2018 4:00 PM 79 69 0.56 0 1.46
7/6/2018 5:00 PM 82 63 0.71 0 1.97
7/6/2018 6:00 PM 82 62 0.66 0 1.8
7/6/2018 7:00 PM 82 65 0.44 0 0.63
7/6/2018 8:00 PM 80 70 0.05 0 0.26
7/6/2018 9:00 PM 78 77 0 0 0.19
7/6/2018 10:00 PM 78 71 0 0 0.25
7/6/2018 11:00 PM 78 70 0 0 1.31
Data Summary 81 68 16.23 0.02 0.90